Time;durP1;ratioP1;P1;durP2;ratioP2;P2;SDS_P1;SDS_P2;PMS_P1;PMS_P2;Temp;Humidity;BMP_temperature;BMP_pressure;BME280_temperature;BME280_humidity;BME280_pressure;Samples;Min_cycle;Max_cycle;Signal;HPM_P1;HPM_P2
2023/06/24 00:01:36;;;;;;;17.92;12.30;;;15.00;99.90;;;;;;4986740;28;20058;-84
2023/06/24 00:04:02;;;;;;;15.50;12.18;;;15.00;99.90;;;;;;4983100;28;20388;-84
2023/06/24 00:06:27;;;;;;;17.33;12.15;;;14.90;99.90;;;;;;4984720;28;20030;-85
2023/06/24 00:09:00;;;;;;;19.02;12.70;;;14.90;99.90;;;;;;4986249;28;20529;-85
2023/06/24 00:11:30;;;;;;;20.83;13.57;;;14.80;99.90;;;;;;4985509;28;20054;-83
2023/06/24 00:13:56;;;;;;;17.40;12.88;;;14.80;99.90;;;;;;4980870;28;20037;-84
2023/06/24 00:16:27;;;;;;;21.48;12.48;;;14.70;99.90;;;;;;4986757;28;20026;-84
2023/06/24 00:18:55;;;;;;;16.23;11.90;;;14.70;99.90;;;;;;4983178;28;20549;-84
2023/06/24 00:21:20;;;;;;;26.98;13.43;;;14.60;99.90;;;;;;5002705;28;20380;-84
2023/06/24 00:23:49;;;;;;;21.40;12.55;;;14.60;99.90;;;;;;4978385;28;20064;-87
2023/06/24 00:26:14;;;;;;;15.30;10.70;;;14.50;99.90;;;;;;4987848;28;20027;-83
2023/06/24 00:28:40;;;;;;;17.17;12.45;;;14.40;99.90;;;;;;4984756;28;20041;-91
2023/06/24 00:31:05;;;;;;;17.73;11.93;;;14.50;99.90;;;;;;4985307;28;20026;-86
2023/06/24 00:33:35;;;;;;;26.10;14.20;;;14.40;99.90;;;;;;4983559;28;20118;-85
2023/06/24 00:36:01;;;;;;;24.55;14.35;;;14.30;99.90;;;;;;4984394;28;20533;-84
2023/06/24 00:38:29;;;;;;;20.63;13.82;;;14.30;99.90;;;;;;4985396;28;20030;-83
2023/06/24 00:40:58;;;;;;;19.17;12.80;;;14.20;99.90;;;;;;4981893;28;20038;-90
2023/06/24 00:43:23;;;;;;;27.42;13.82;;;14.20;99.90;;;;;;4981878;28;20047;-84
2023/06/24 00:45:50;;;;;;;18.63;13.52;;;14.20;99.90;;;;;;4981542;28;20044;-84
2023/06/24 00:48:16;;;;;;;20.98;13.65;;;14.10;99.90;;;;;;4981635;28;20022;-86
2023/06/24 00:50:45;;;;;;;19.98;14.70;;;14.10;99.90;;;;;;4982878;28;20517;-84
2023/06/24 00:53:11;;;;;;;18.42;11.80;;;14.10;99.90;;;;;;4986731;28;20110;-84
2023/06/24 00:55:37;;;;;;;21.10;14.82;;;14.10;99.90;;;;;;4980146;28;20034;-87
2023/06/24 00:58:04;;;;;;;20.27;13.18;;;14.10;99.90;;;;;;4980391;28;20510;-84
2023/06/24 01:00:32;;;;;;;19.70;14.68;;;14.00;99.90;;;;;;4982734;28;20485;-85
2023/06/24 01:02:59;;;;;;;19.30;12.98;;;14.00;99.90;;;;;;4981388;28;20088;-86
2023/06/24 01:05:26;;;;;;;16.52;12.73;;;14.00;99.90;;;;;;4968644;28;20418;-85
2023/06/24 01:07:55;;;;;;;19.08;12.40;;;14.00;99.90;;;;;;4976287;28;20470;-84
2023/06/24 01:10:23;;;;;;;17.98;12.32;;;13.90;99.90;;;;;;4980410;28;20052;-85
2023/06/24 01:12:49;;;;;;;22.88;13.40;;;13.90;99.90;;;;;;4978222;28;20054;-84
2023/06/24 01:15:16;;;;;;;19.65;13.32;;;13.90;99.90;;;;;;4992142;28;20040;-87
2023/06/24 01:17:56;;;;;;;19.83;14.98;;;13.90;99.90;;;;;;4983054;28;20085;-84
2023/06/24 01:20:46;;;;;;;25.55;14.10;;;13.90;99.90;;;;;;4980124;28;20031;-84
2023/06/24 01:23:47;;;;;;;22.08;13.45;;;13.90;99.90;;;;;;4977740;28;20050;-84
2023/06/24 01:26:50;;;;;;;22.38;17.20;;;13.90;99.90;;;;;;4996888;28;20039;-84
2023/06/24 01:29:32;;;;;;;26.75;17.15;;;13.90;99.90;;;;;;4981848;28;20022;-84
2023/06/24 01:32:16;;;;;;;24.52;17.05;;;13.90;99.90;;;;;;4974728;28;20042;-84
2023/06/24 01:34:52;;;;;;;21.33;14.82;;;14.00;99.90;;;;;;4984700;28;20062;-84
2023/06/24 01:37:36;;;;;;;26.20;17.48;;;14.00;99.90;;;;;;4983456;28;20034;-84
2023/06/24 01:40:10;;;;;;;26.70;17.50;;;14.00;99.90;;;;;;4979216;28;20038;-85
2023/06/24 01:42:39;;;;;;;28.60;18.83;;;14.00;99.90;;;;;;4979745;28;20034;-84
2023/06/24 01:45:09;;;;;;;34.33;20.92;;;14.00;99.90;;;;;;4987976;28;20086;-83
2023/06/24 01:47:35;;;;;;;26.38;19.83;;;14.10;99.90;;;;;;4986398;28;20538;-83
2023/06/24 01:50:03;;;;;;;29.15;20.23;;;14.10;99.90;;;;;;4981567;28;20032;-84
2023/06/24 01:52:30;;;;;;;32.50;19.17;;;14.10;99.90;;;;;;4976819;28;20030;-84
2023/06/24 01:54:58;;;;;;;32.40;22.30;;;14.10;99.90;;;;;;4984747;28;20033;-84
2023/06/24 01:57:24;;;;;;;31.85;21.30;;;14.20;99.90;;;;;;5007137;28;20032;-86
2023/06/24 01:59:53;;;;;;;27.52;20.20;;;14.20;99.90;;;;;;4985428;28;20038;-91
2023/06/24 02:02:20;;;;;;;29.38;21.02;;;14.20;99.90;;;;;;4977177;28;20445;-83
2023/06/24 02:04:45;;;;;;;34.95;20.92;;;14.20;99.90;;;;;;4983986;28;20119;-84
2023/06/24 02:07:12;;;;;;;32.08;20.30;;;14.30;99.90;;;;;;4984432;28;20031;-84
2023/06/24 02:09:39;;;;;;;32.10;21.08;;;14.30;99.90;;;;;;4981100;28;20034;-84
2023/06/24 02:12:06;;;;;;;52.65;21.95;;;14.40;99.90;;;;;;5002673;28;20040;-89
2023/06/24 02:14:33;;;;;;;31.20;21.67;;;14.40;99.90;;;;;;4981936;28;20041;-84
2023/06/24 02:17:00;;;;;;;32.08;20.40;;;14.50;99.90;;;;;;4981306;28;20529;-84
2023/06/24 02:19:29;;;;;;;34.97;19.38;;;14.40;99.90;;;;;;4981628;28;20493;-84
2023/06/24 02:21:59;;;;;;;29.55;20.65;;;14.40;99.90;;;;;;4979047;28;20023;-90
2023/06/24 02:24:26;;;;;;;33.08;21.67;;;14.40;99.90;;;;;;4983245;28;20093;-84
2023/06/24 02:26:52;;;;;;;33.28;22.13;;;14.40;99.90;;;;;;4975985;28;20031;-84
2023/06/24 02:29:19;;;;;;;27.27;17.80;;;14.40;99.90;;;;;;4985842;28;20118;-84
2023/06/24 02:31:45;;;;;;;36.70;21.60;;;14.40;99.90;;;;;;4978868;28;20100;-84
2023/06/24 02:34:11;;;;;;;35.55;21.55;;;14.40;99.90;;;;;;4981205;28;20096;-87
2023/06/24 02:36:36;;;;;;;37.15;22.45;;;14.40;99.90;;;;;;4974445;28;20486;-86
2023/06/24 02:39:02;;;;;;;35.17;22.10;;;14.40;99.90;;;;;;4979815;28;20261;-83
2023/06/24 02:41:27;;;;;;;32.90;20.15;;;14.40;99.90;;;;;;4975988;28;20031;-84
2023/06/24 02:43:53;;;;;;;34.25;20.85;;;14.40;99.90;;;;;;4983781;28;20129;-83
2023/06/24 02:46:21;;;;;;;28.08;19.10;;;14.40;99.90;;;;;;5000197;28;20021;-90
2023/06/24 02:48:49;;;;;;;31.83;20.50;;;14.50;99.90;;;;;;4983938;28;20038;-83
2023/06/24 02:51:15;;;;;;;31.50;19.50;;;14.50;99.90;;;;;;4979516;28;20523;-86
2023/06/24 02:53:42;;;;;;;24.00;18.15;;;14.50;99.90;;;;;;4984539;28;20479;-84
2023/06/24 02:56:08;;;;;;;28.92;19.13;;;14.50;99.90;;;;;;4973236;28;20076;-84
2023/06/24 02:58:38;;;;;;;29.25;18.98;;;14.50;99.90;;;;;;4982643;28;20034;-91
2023/06/24 03:01:06;;;;;;;29.15;18.48;;;14.50;99.90;;;;;;4979437;28;20479;-85
2023/06/24 03:03:32;;;;;;;37.78;20.48;;;14.50;99.90;;;;;;4981530;28;20038;-86
2023/06/24 03:05:59;;;;;;;31.80;20.52;;;14.50;99.90;;;;;;4986033;28;20376;-84
2023/06/24 03:08:26;;;;;;;30.35;19.90;;;14.40;99.90;;;;;;4977004;28;20030;-91
2023/06/24 03:10:55;;;;;;;27.50;19.05;;;14.40;99.90;;;;;;4982353;28;20394;-85
2023/06/24 03:13:20;;;;;;;28.60;18.20;;;14.40;99.90;;;;;;4979537;28;20093;-84
2023/06/24 03:15:46;;;;;;;31.45;18.38;;;14.30;99.90;;;;;;4980838;28;20031;-86
2023/06/24 03:18:11;;;;;;;28.77;20.05;;;14.30;99.90;;;;;;4991512;28;20035;-89
2023/06/24 03:20:38;;;;;;;33.95;20.35;;;14.30;99.90;;;;;;4977029;28;20038;-84
2023/06/24 03:23:06;;;;;;;29.83;18.67;;;14.20;99.90;;;;;;4981769;28;20038;-83
2023/06/24 03:25:32;;;;;;;33.47;20.60;;;14.20;99.90;;;;;;4981620;28;20548;-84
2023/06/24 03:27:58;;;;;;;34.15;19.02;;;14.20;99.90;;;;;;4982468;28;20034;-84
2023/06/24 03:30:24;;;;;;;34.83;20.08;;;14.20;99.90;;;;;;4981061;28;20031;-85
2023/06/24 03:32:49;;;;;;;35.75;20.08;;;14.20;99.90;;;;;;4977474;28;20041;-84
2023/06/24 03:35:15;;;;;;;31.10;20.38;;;14.10;99.90;;;;;;4980125;28;20176;-86
2023/06/24 03:37:40;;;;;;;29.98;20.10;;;14.10;99.90;;;;;;4990481;28;20837;-84
2023/06/24 03:40:07;;;;;;;38.45;20.00;;;14.10;99.90;;;;;;5004326;28;20459;-84
2023/06/24 03:42:34;;;;;;;29.35;18.00;;;14.10;99.90;;;;;;4977114;28;20035;-90
2023/06/24 03:45:00;;;;;;;29.42;18.58;;;14.10;99.90;;;;;;4977900;28;20034;-86
2023/06/24 03:47:25;;;;;;;34.53;18.45;;;14.10;99.90;;;;;;4979401;28;20041;-86
2023/06/24 03:49:51;;;;;;;31.92;20.83;;;14.00;99.90;;;;;;4982182;28;20480;-84
2023/06/24 03:52:19;;;;;;;29.52;19.80;;;14.00;99.90;;;;;;4981318;28;20023;-84
2023/06/24 03:54:46;;;;;;;31.08;18.60;;;14.00;99.90;;;;;;4979282;28;20129;-92
2023/06/24 03:57:12;;;;;;;30.58;20.00;;;14.10;99.90;;;;;;4979241;28;20034;-85
2023/06/24 03:59:37;;;;;;;26.67;19.17;;;14.10;99.90;;;;;;4981433;28;20023;-85
2023/06/24 04:02:07;;;;;;;29.10;21.15;;;14.00;99.90;;;;;;4979772;28;20022;-85
2023/06/24 04:04:33;;;;;;;31.75;20.15;;;14.10;99.90;;;;;;4979676;28;20042;-84
2023/06/24 04:06:59;;;;;;;30.17;20.08;;;14.10;99.90;;;;;;4976521;28;20034;-92
2023/06/24 04:09:25;;;;;;;29.88;19.60;;;14.10;99.90;;;;;;4979364;28;20031;-84
2023/06/24 04:11:50;;;;;;;32.30;20.05;;;14.20;99.90;;;;;;5005104;28;20057;-84
2023/06/24 04:14:16;;;;;;;29.13;19.58;;;14.20;99.90;;;;;;5040714;28;20119;-84
2023/06/24 04:16:42;;;;;;;32.70;19.98;;;14.20;99.90;;;;;;5065746;28;20074;-83
2023/06/24 04:19:11;;;;;;;28.60;18.23;;;14.20;99.90;;;;;;5061729;28;20078;-86
2023/06/24 04:21:39;;;;;;;29.17;18.30;;;14.20;99.90;;;;;;5058018;28;20020;-83
2023/06/24 04:24:04;;;;;;;29.63;18.00;;;14.20;99.90;;;;;;5065501;28;20091;-86
2023/06/24 04:26:30;;;;;;;30.92;18.50;;;14.30;99.90;;;;;;5066216;28;20024;-85
2023/06/24 04:28:56;;;;;;;27.55;17.80;;;14.30;99.90;;;;;;5057287;28;20024;-85
2023/06/24 04:31:30;;;;;;;29.80;18.10;;;14.40;99.90;;;;;;5062687;28;20120;-84
2023/06/24 04:33:56;;;;;;;27.85;18.48;;;14.40;99.90;;;;;;5060045;28;20396;-87
2023/06/24 04:36:21;;;;;;;33.95;18.35;;;14.40;99.90;;;;;;5065112;28;20033;-84
2023/06/24 04:38:50;;;;;;;31.88;18.08;;;14.40;99.90;;;;;;5068050;28;20036;-85
2023/06/24 04:41:20;;;;;;;31.08;18.38;;;14.40;99.90;;;;;;5065567;28;20111;-85
2023/06/24 04:43:48;;;;;;;29.08;18.25;;;14.50;99.90;;;;;;5068182;28;20066;-84
2023/06/24 04:46:14;;;;;;;25.85;18.67;;;14.50;99.90;;;;;;5063445;28;20074;-83
2023/06/24 04:48:42;;;;;;;30.58;18.02;;;14.50;99.90;;;;;;5065783;28;20559;-84
2023/06/24 04:51:08;;;;;;;33.70;18.77;;;14.60;99.90;;;;;;5065467;28;20030;-84
2023/06/24 04:53:42;;;;;;;30.58;17.58;;;14.60;99.90;;;;;;5060634;28;20529;-84
2023/06/24 04:56:11;;;;;;;33.80;19.13;;;14.60;99.90;;;;;;5062355;28;20463;-85
2023/06/24 04:58:40;;;;;;;27.77;18.17;;;14.70;99.90;;;;;;5068999;28;20499;-85
2023/06/24 05:01:05;;;;;;;28.25;17.23;;;14.70;99.90;;;;;;5060719;28;20473;-85
2023/06/24 05:03:31;;;;;;;24.55;17.08;;;14.70;99.90;;;;;;5043832;28;20144;-87
2023/06/24 05:05:56;;;;;;;28.20;17.95;;;14.80;99.90;;;;;;5064182;28;20024;-84
2023/06/24 05:08:25;;;;;;;29.10;17.23;;;14.70;99.90;;;;;;5063998;28;20325;-85
2023/06/24 05:10:50;;;;;;;26.42;16.17;;;14.80;99.90;;;;;;5068780;28;20405;-86
2023/06/24 05:13:16;;;;;;;26.30;18.30;;;14.80;99.90;;;;;;4989945;28;20039;-84
2023/06/24 05:15:41;;;;;;;24.95;16.00;;;14.90;99.90;;;;;;4985796;28;20030;-85
2023/06/24 05:18:07;;;;;;;31.63;18.00;;;14.90;99.90;;;;;;4985060;28;20440;-84
2023/06/24 05:20:32;;;;;;;27.98;17.50;;;14.90;99.90;;;;;;4980891;28;20034;-88
2023/06/24 05:22:58;;;;;;;25.13;15.70;;;15.00;99.90;;;;;;4982975;28;20171;-86
2023/06/24 05:25:25;;;;;;;26.15;17.02;;;15.00;99.90;;;;;;5002710;28;20371;-90
2023/06/24 05:28:09;;;;;;;31.55;19.73;;;15.00;99.90;;;;;;4983180;28;20031;-85
2023/06/24 05:30:38;;;;;;;29.00;17.73;;;15.10;99.90;;;;;;4980984;28;20033;-85
2023/06/24 05:33:03;;;;;;;34.45;19.20;;;15.20;99.90;;;;;;4993210;28;20452;-85
2023/06/24 05:35:31;;;;;;;30.98;17.45;;;15.20;99.90;;;;;;4988033;28;20109;-84
2023/06/24 05:37:57;;;;;;;34.35;17.67;;;15.20;99.90;;;;;;4981862;28;20076;-85
2023/06/24 05:40:23;;;;;;;29.40;17.38;;;15.20;99.90;;;;;;4997614;28;20506;-85
2023/06/24 05:42:48;;;;;;;33.20;16.90;;;15.30;99.90;;;;;;4976335;28;20038;-84
2023/06/24 05:45:14;;;;;;;27.85;16.35;;;15.40;99.90;;;;;;4979421;28;20046;-86
2023/06/24 05:47:40;;;;;;;32.70;17.83;;;15.40;99.90;;;;;;4978495;28;20034;-86
2023/06/24 05:50:05;;;;;;;29.48;17.58;;;15.50;99.90;;;;;;4977630;28;20027;-89
2023/06/24 05:52:31;;;;;;;30.27;17.70;;;15.40;99.90;;;;;;4984280;28;20031;-86
2023/06/24 05:54:56;;;;;;;25.90;18.15;;;15.40;99.90;;;;;;4979197;28;20034;-84
2023/06/24 05:57:22;;;;;;;29.25;16.17;;;15.40;99.90;;;;;;4992866;28;20172;-87
2023/06/24 05:59:47;;;;;;;28.13;17.05;;;15.40;99.90;;;;;;4993714;28;20075;-87
2023/06/24 06:02:16;;;;;;;27.48;17.02;;;15.50;99.90;;;;;;4997592;28;20388;-89
2023/06/24 06:04:42;;;;;;;27.25;17.08;;;15.50;99.90;;;;;;4980272;28;20030;-85
2023/06/24 06:07:07;;;;;;;37.63;17.02;;;15.50;99.90;;;;;;4982948;28;20022;-85
2023/06/24 06:09:33;;;;;;;30.02;18.42;;;15.40;99.90;;;;;;4971555;28;20034;-86
2023/06/24 06:11:58;;;;;;;26.50;16.85;;;15.50;99.90;;;;;;4988757;28;20038;-84
2023/06/24 06:14:24;;;;;;;36.75;19.27;;;15.40;99.90;;;;;;4993632;28;20022;-85
2023/06/24 06:16:49;;;;;;;27.80;17.02;;;15.50;99.90;;;;;;4976626;28;20488;-85
2023/06/24 06:19:15;;;;;;;30.92;18.23;;;15.40;99.90;;;;;;4984801;28;20019;-88
2023/06/24 06:21:40;;;;;;;27.17;17.63;;;15.50;99.90;;;;;;4989298;28;20023;-85
2023/06/24 06:24:06;;;;;;;25.30;16.05;;;15.50;99.90;;;;;;4979116;28;20095;-84
2023/06/24 06:26:32;;;;;;;28.63;16.58;;;15.60;99.90;;;;;;4984605;28;20027;-85
2023/06/24 06:28:57;;;;;;;25.13;16.80;;;15.60;99.90;;;;;;4983787;28;20037;-84
2023/06/24 06:31:25;;;;;;;25.67;14.40;;;15.70;99.90;;;;;;4982178;28;20498;-85
2023/06/24 06:33:51;;;;;;;26.42;15.90;;;15.80;99.90;;;;;;4971724;28;20391;-84
2023/06/24 06:36:17;;;;;;;26.58;16.25;;;15.80;99.90;;;;;;4977952;28;20030;-85
2023/06/24 06:38:42;;;;;;;23.98;13.68;;;15.90;99.90;;;;;;4982754;28;20034;-84
2023/06/24 06:41:08;;;;;;;24.88;13.63;;;15.80;99.90;;;;;;4979139;28;20066;-86
2023/06/24 06:43:34;;;;;;;20.45;12.70;;;16.00;99.90;;;;;;4985305;28;20049;-87
2023/06/24 06:45:59;;;;;;;16.52;12.07;;;16.00;99.90;;;;;;4980350;28;20513;-86
2023/06/24 06:48:25;;;;;;;23.05;12.68;;;16.10;99.90;;;;;;4979613;28;20038;-85
2023/06/24 06:50:52;;;;;;;19.98;11.95;;;16.20;99.90;;;;;;4983490;28;20056;-86
2023/06/24 06:53:17;;;;;;;22.42;12.75;;;16.30;99.90;;;;;;4979489;28;20030;-86
2023/06/24 06:55:43;;;;;;;18.20;9.18;;;16.30;99.90;;;;;;4984614;28;20053;-88
2023/06/24 06:58:09;;;;;;;21.92;9.23;;;16.40;99.90;;;;;;4984774;28;20019;-86
2023/06/24 07:00:34;;;;;;;18.17;11.18;;;16.40;99.90;;;;;;4976281;28;20031;-86
2023/06/24 07:03:00;;;;;;;15.35;10.55;;;16.40;99.90;;;;;;4976013;28;20049;-86
2023/06/24 07:05:25;;;;;;;14.05;8.48;;;16.40;99.90;;;;;;4980756;28;20042;-88
2023/06/24 07:07:51;;;;;;;15.48;8.40;;;16.40;99.90;;;;;;4984116;28;20471;-85
2023/06/24 07:10:19;;;;;;;14.57;10.75;;;16.40;99.90;;;;;;4979740;28;20049;-86
2023/06/24 07:12:45;;;;;;;15.80;10.45;;;16.40;99.90;;;;;;4981922;28;20081;-87
2023/06/24 07:15:10;;;;;;;20.58;10.45;;;16.40;99.90;;;;;;4983975;28;20174;-86
2023/06/24 07:17:36;;;;;;;23.70;10.45;;;16.40;99.90;;;;;;4978919;28;20030;-86
2023/06/24 07:20:02;;;;;;;17.58;10.52;;;16.50;99.90;;;;;;4991322;28;20376;-86
2023/06/24 07:22:27;;;;;;;20.23;10.02;;;16.50;99.90;;;;;;4978545;28;20035;-88
2023/06/24 07:24:53;;;;;;;18.60;8.73;;;16.60;99.90;;;;;;4980498;28;20038;-87
2023/06/24 07:27:18;;;;;;;14.80;8.90;;;16.60;99.90;;;;;;4981759;28;20486;-86
2023/06/24 07:29:44;;;;;;;16.35;7.90;;;16.70;99.90;;;;;;4983173;28;20083;-86
2023/06/24 07:32:09;;;;;;;18.85;8.50;;;16.70;99.90;;;;;;4982891;28;20105;-87
2023/06/24 07:34:35;;;;;;;20.23;8.63;;;16.70;99.90;;;;;;4981042;28;20032;-87
2023/06/24 07:37:00;;;;;;;11.95;8.43;;;16.70;99.90;;;;;;4982516;28;20133;-91
2023/06/24 07:39:26;;;;;;;15.32;8.32;;;16.70;99.90;;;;;;4977844;28;20436;-87
2023/06/24 07:41:51;;;;;;;13.38;8.10;;;16.70;99.90;;;;;;4983069;28;20054;-87
2023/06/24 07:44:18;;;;;;;24.17;9.55;;;16.70;99.90;;;;;;4984300;28;20030;-87
2023/06/24 07:46:44;;;;;;;15.07;8.98;;;16.80;99.90;;;;;;4981053;28;20030;-87
2023/06/24 07:49:10;;;;;;;14.60;8.95;;;16.80;99.90;;;;;;4979188;28;20480;-88
2023/06/24 07:51:35;;;;;;;22.40;8.57;;;16.90;99.90;;;;;;4976922;28;20037;-86
2023/06/24 07:54:01;;;;;;;14.52;9.07;;;16.90;99.90;;;;;;4982915;28;20119;-88
2023/06/24 07:56:27;;;;;;;21.63;9.45;;;16.90;99.90;;;;;;4980477;28;20034;-87
2023/06/24 07:58:53;;;;;;;17.73;8.38;;;17.00;99.90;;;;;;4981321;28;20064;-87
2023/06/24 08:01:18;;;;;;;12.18;8.63;;;17.00;99.90;;;;;;4976233;28;20494;-88
2023/06/24 08:03:44;;;;;;;13.32;8.13;;;17.00;99.90;;;;;;4978394;28;20052;-88
2023/06/24 08:06:09;;;;;;;17.80;8.27;;;17.10;99.90;;;;;;4981477;28;20436;-88
2023/06/24 08:08:35;;;;;;;15.88;8.68;;;17.10;99.90;;;;;;5004616;28;20121;-89
2023/06/24 08:11:02;;;;;;;13.63;7.60;;;17.20;99.90;;;;;;4997536;28;20026;-88
2023/06/24 08:13:27;;;;;;;18.25;8.48;;;17.30;99.90;;;;;;4989518;28;20098;-86
2023/06/24 08:15:54;;;;;;;12.90;7.13;;;17.30;99.90;;;;;;4992521;28;20421;-88
2023/06/24 08:18:20;;;;;;;13.93;7.55;;;17.40;99.90;;;;;;4984856;28;20023;-88
2023/06/24 08:20:45;;;;;;;16.48;7.40;;;17.40;99.90;;;;;;4977192;28;20026;-90
2023/06/24 08:23:11;;;;;;;11.73;6.93;;;17.40;99.90;;;;;;4982740;28;20046;-89
2023/06/24 08:25:36;;;;;;;12.30;7.60;;;17.40;99.90;;;;;;4982461;28;20103;-88
2023/06/24 08:28:02;;;;;;;12.32;7.38;;;17.40;99.90;;;;;;4978625;28;20494;-90
2023/06/24 08:30:27;;;;;;;8.25;6.60;;;17.40;99.90;;;;;;4983669;28;20483;-88
2023/06/24 08:32:53;;;;;;;17.08;6.82;;;17.50;99.90;;;;;;4980474;28;20031;-89
2023/06/24 08:35:18;;;;;;;15.52;6.60;;;17.50;99.90;;;;;;4977278;28;20019;-89
2023/06/24 08:37:44;;;;;;;18.30;7.25;;;17.60;99.90;;;;;;4979054;28;20023;-88
2023/06/24 08:40:11;;;;;;;8.15;6.05;;;17.70;99.90;;;;;;4985072;28;20050;-88
2023/06/24 08:42:36;;;;;;;13.13;6.80;;;17.70;99.90;;;;;;4983485;28;20151;-87
2023/06/24 08:45:02;;;;;;;14.82;6.85;;;17.80;99.90;;;;;;4983252;28;20037;-86
2023/06/24 08:47:29;;;;;;;14.80;7.05;;;17.90;99.90;;;;;;4985251;28;20045;-87
2023/06/24 08:50:08;;;;;;;11.85;7.25;;;17.90;99.90;;;;;;4985570;28;20031;-87
2023/06/24 08:52:36;;;;;;;13.25;6.40;;;17.90;99.90;;;;;;4984925;28;20037;-89
2023/06/24 08:55:04;;;;;;;10.43;6.28;;;17.90;99.90;;;;;;4983555;28;20033;-88
2023/06/24 08:57:29;;;;;;;13.52;7.65;;;17.90;99.90;;;;;;4982488;28;20553;-88
2023/06/24 08:59:55;;;;;;;10.95;6.25;;;18.00;99.90;;;;;;4981402;28;20032;-87
2023/06/24 09:02:20;;;;;;;12.88;5.47;;;18.00;99.90;;;;;;4978297;28;20022;-85
2023/06/24 09:04:46;;;;;;;11.90;6.03;;;18.10;99.90;;;;;;4983494;28;20034;-88
2023/06/24 09:07:12;;;;;;;15.73;6.22;;;18.20;99.90;;;;;;4979025;28;20066;-88
2023/06/24 09:09:44;;;;;;;11.50;5.55;;;18.30;99.90;;;;;;4984408;28;20479;-89
2023/06/24 09:12:12;;;;;;;12.13;6.43;;;18.30;99.90;;;;;;4983635;28;20095;-91
2023/06/24 09:14:39;;;;;;;9.55;5.03;;;18.40;99.90;;;;;;4979717;28;20033;-87
2023/06/24 09:17:04;;;;;;;9.52;5.32;;;18.50;99.90;;;;;;4974221;28;20023;-87
2023/06/24 09:19:32;;;;;;;7.90;5.20;;;18.60;99.90;;;;;;4974517;28;20041;-88
2023/06/24 09:22:07;;;;;;;7.63;4.63;;;18.60;99.90;;;;;;4978826;28;20018;-86
2023/06/24 09:24:33;;;;;;;14.77;5.57;;;18.70;99.90;;;;;;4979031;28;20072;-87
2023/06/24 09:27:00;;;;;;;5.57;4.65;;;18.70;99.90;;;;;;4977269;28;20204;-87
2023/06/24 09:29:27;;;;;;;9.48;5.25;;;18.80;99.90;;;;;;4974469;28;20030;-87
2023/06/24 09:31:52;;;;;;;8.60;4.30;;;18.90;99.90;;;;;;4981015;28;20034;-86
2023/06/24 09:34:19;;;;;;;6.25;4.47;;;19.00;99.90;;;;;;4982629;28;20371;-85
2023/06/24 09:36:50;;;;;;;9.05;4.15;;;19.10;99.90;;;;;;4979368;28;20041;-88
2023/06/24 09:39:16;;;;;;;5.60;3.30;;;19.10;99.90;;;;;;4981082;28;20403;-87
2023/06/24 09:41:42;;;;;;;10.45;6.03;;;19.10;99.90;;;;;;4983052;28;20027;-88
2023/06/24 09:44:11;;;;;;;11.63;5.22;;;19.10;99.90;;;;;;4980786;28;20043;-87
2023/06/24 09:46:37;;;;;;;11.77;7.13;;;19.20;99.90;;;;;;4983725;28;20054;-86
2023/06/24 09:49:06;;;;;;;7.13;4.63;;;19.20;99.90;;;;;;4986012;28;20041;-88
2023/06/24 09:51:44;;;;;;;6.00;4.50;;;19.30;99.90;;;;;;4975768;28;20459;-87
2023/06/24 09:54:12;;;;;;;5.88;4.10;;;19.30;99.90;;;;;;4962914;28;20033;-89
2023/06/24 09:56:43;;;;;;;4.68;4.07;;;19.30;99.90;;;;;;4978175;28;20033;-87
2023/06/24 09:59:10;;;;;;;6.35;4.68;;;19.30;99.90;;;;;;4979930;28;20037;-86
2023/06/24 10:01:39;;;;;;;6.80;4.60;;;19.40;99.90;;;;;;4978726;28;20039;-88
2023/06/24 10:04:06;;;;;;;8.23;4.72;;;19.50;99.90;;;;;;4977906;28;21383;-86
2023/06/24 10:06:33;;;;;;;7.60;4.07;;;19.50;99.90;;;;;;4980313;28;20027;-87
2023/06/24 10:09:01;;;;;;;12.50;4.35;;;19.50;99.90;;;;;;4976478;28;20030;-90
2023/06/24 10:11:26;;;;;;;4.55;3.95;;;19.70;99.90;;;;;;4977598;28;20047;-87
2023/06/24 10:13:53;;;;;;;8.13;4.40;;;19.70;99.90;;;;;;4982806;28;20073;-88
2023/06/24 10:16:19;;;;;;;7.03;3.80;;;19.80;99.90;;;;;;4982737;28;20030;-86
2023/06/24 10:18:45;;;;;;;6.70;3.80;;;19.80;99.90;;;;;;4972596;28;20019;-86
2023/06/24 10:21:12;;;;;;;11.93;4.78;;;19.80;99.90;;;;;;4962590;28;20054;-86
2023/06/24 10:23:56;;;;;;;7.13;3.20;;;19.90;99.90;;;;;;4977466;28;20423;-87
2023/06/24 10:26:28;;;;;;;4.15;3.40;;;20.00;99.90;;;;;;4982743;28;20379;-86
2023/06/24 10:29:06;;;;;;;7.05;3.55;;;20.10;99.90;;;;;;4999241;28;20027;-87
2023/06/24 10:31:40;;;;;;;5.10;3.25;;;20.10;99.90;;;;;;4978979;28;20159;-87
2023/06/24 10:34:31;;;;;;;6.70;4.13;;;20.10;99.90;;;;;;4977212;28;20030;-87
2023/06/24 10:37:01;;;;;;;4.70;3.45;;;20.20;99.90;;;;;;4974765;28;20035;-86
2023/06/24 10:39:50;;;;;;;4.70;3.30;;;20.10;99.90;;;;;;4979547;28;20049;-86
2023/06/24 10:42:29;;;;;;;4.38;3.20;;;20.20;99.90;;;;;;4976831;28;20129;-85
2023/06/24 10:45:11;;;;;;;6.63;3.67;;;20.20;99.90;;;;;;4975344;28;20383;-87
2023/06/24 10:47:38;;;;;;;6.30;3.80;;;20.30;99.90;;;;;;4980862;28;20034;-87
2023/06/24 10:50:04;;;;;;;8.70;3.33;;;20.50;99.90;;;;;;4982546;28;20123;-87
2023/06/24 10:52:30;;;;;;;8.95;3.70;;;20.60;99.90;;;;;;4982469;28;20480;-87
2023/06/24 10:54:57;;;;;;;5.07;3.15;;;20.60;99.90;;;;;;4984203;28;20087;-87
2023/06/24 10:57:27;;;;;;;7.10;3.50;;;20.60;99.90;;;;;;4981264;28;20030;-86
2023/06/24 10:59:56;;;;;;;4.43;3.20;;;20.60;99.90;;;;;;4975738;28;20442;-85
2023/06/24 11:02:30;;;;;;;3.75;3.25;;;20.60;99.90;;;;;;4980931;28;20032;-87
2023/06/24 11:05:01;;;;;;;5.60;3.67;;;20.60;99.90;;;;;;4978204;28;20042;-86
2023/06/24 11:07:34;;;;;;;6.88;3.17;;;20.60;99.90;;;;;;4980565;28;20407;-88
2023/06/24 11:10:03;;;;;;;4.28;3.33;;;20.60;99.90;;;;;;4983476;28;20039;-85
2023/06/24 11:12:33;;;;;;;5.40;3.55;;;20.70;99.90;;;;;;4977823;28;20057;-85
2023/06/24 11:15:19;;;;;;;6.50;3.95;;;20.80;99.90;;;;;;4976248;28;20038;-84
2023/06/24 11:17:45;;;;;;;;;;;20.80;99.90;;;;;;4983768;28;20476;-87
2023/06/24 11:20:14;;;;;;;;;;;21.00;99.90;;;;;;4980012;28;19917;-86
2023/06/24 11:22:40;;;;;;;6.00;3.60;;;20.90;99.90;;;;;;4975855;28;19910;-86
2023/06/24 11:25:06;;;;;;;5.82;4.10;;;20.90;99.90;;;;;;4974875;28;20044;-85
2023/06/24 11:27:32;;;;;;;6.65;3.40;;;20.90;99.90;;;;;;4976781;28;20433;-87
2023/06/24 11:30:01;;;;;;;7.13;4.22;;;20.90;99.90;;;;;;4983140;28;20030;-87
2023/06/24 11:32:37;;;;;;;8.93;3.75;;;20.90;99.90;;;;;;4981854;28;20109;-87
2023/06/24 11:35:04;;;;;;;;;;;20.90;99.90;;;;;;4980194;28;20121;-88
2023/06/24 11:37:35;;;;;;;4.65;3.75;;;21.00;99.90;;;;;;4980200;28;19911;-85
2023/06/24 11:40:04;;;;;;;6.45;3.75;;;21.20;99.90;;;;;;4979344;28;20039;-87
2023/06/24 11:42:30;;;;;;;5.40;3.58;;;21.20;99.90;;;;;;4979297;28;20117;-86
2023/06/24 11:45:03;;;;;;;8.65;3.92;;;21.20;99.90;;;;;;4978960;28;20114;-86
2023/06/24 11:47:36;;;;;;;6.68;3.78;;;21.20;99.90;;;;;;4979711;28;20022;-86
2023/06/24 11:50:04;;;;;;;5.40;3.70;;;21.20;99.90;;;;;;4987684;28;20022;-87
2023/06/24 11:52:35;;;;;;;6.10;3.70;;;21.40;99.90;;;;;;4986228;28;20498;-87
2023/06/24 11:55:01;;;;;;;8.10;3.97;;;21.50;99.90;;;;;;5012920;28;20032;-85
2023/06/24 11:57:56;;;;;;;6.03;3.58;;;21.40;99.90;;;;;;4986511;28;20034;-86
2023/06/24 12:00:23;;;;;;;5.47;3.67;;;21.40;99.90;;;;;;4986433;28;20417;-87
2023/06/24 12:02:51;;;;;;;5.30;3.33;;;21.40;99.90;;;;;;4985507;28;20038;-87
2023/06/24 12:05:30;;;;;;;4.93;3.42;;;21.30;99.90;;;;;;4990637;28;20108;-86
2023/06/24 12:07:58;;;;;;;8.02;4.22;;;21.40;99.90;;;;;;4980639;28;20046;-86
2023/06/24 12:10:24;;;;;;;7.25;4.03;;;21.50;99.90;;;;;;4990014;28;20030;-86
2023/06/24 12:12:49;;;;;;;4.95;3.50;;;21.60;99.90;;;;;;4987617;28;20115;-84
2023/06/24 12:15:15;;;;;;;6.40;3.90;;;21.60;99.90;;;;;;4986740;28;20552;-88
2023/06/24 12:17:40;;;;;;;8.90;3.58;;;21.50;99.90;;;;;;4984033;28;20415;-86
2023/06/24 12:20:07;;;;;;;7.00;3.50;;;21.60;99.90;;;;;;4987553;28;20054;-86
2023/06/24 12:22:37;;;;;;;6.53;3.70;;;21.70;99.90;;;;;;4993619;28;20050;-86
2023/06/24 12:25:03;;;;;;;8.20;3.80;;;21.70;99.90;;;;;;4977180;28;20038;-87
2023/06/24 12:27:29;;;;;;;4.47;3.50;;;21.70;99.90;;;;;;4973989;28;20436;-85
2023/06/24 12:29:54;;;;;;;6.25;3.88;;;21.70;99.90;;;;;;4986731;28;20030;-85
2023/06/24 12:32:20;;;;;;;4.00;3.53;;;21.70;99.90;;;;;;4985682;28;20360;-86
2023/06/24 12:34:45;;;;;;;5.60;3.42;;;21.70;99.90;;;;;;4986658;28;20419;-86
2023/06/24 12:37:11;;;;;;;6.00;3.30;;;21.70;99.90;;;;;;4980857;28;20431;-86
2023/06/24 12:39:36;;;;;;;10.02;3.88;;;21.70;99.90;;;;;;5001158;28;20052;-85